sensor_id;sensor_type;location;lat;lon;timestamp;temperature;humidity
1461;DHT22;724;49.910;12.530;2022-09-13T00:00:48;8.90;1.00
1461;DHT22;724;49.910;12.530;2022-09-13T00:03:15;9.00;1.00
1461;DHT22;724;49.910;12.530;2022-09-13T00:05:42;9.00;1.00
1461;DHT22;724;49.910;12.530;2022-09-13T00:08:11;8.90;1.00
1461;DHT22;724;49.910;12.530;2022-09-13T00:10:39;8.90;1.00
1461;DHT22;724;49.910;12.530;2022-09-13T00:13:07;8.90;1.00
1461;DHT22;724;49.910;12.530;2022-09-13T00:15:35;8.80;1.00
1461;DHT22;724;49.910;12.530;2022-09-13T00:18:02;8.80;1.00
1461;DHT22;724;49.910;12.530;2022-09-13T00:20:29;8.80;1.00
1461;DHT22;724;49.910;12.530;2022-09-13T00:22:56;8.90;1.00
1461;DHT22;724;49.910;12.530;2022-09-13T00:25:24;8.90;1.00
1461;DHT22;724;49.910;12.530;2022-09-13T00:27:51;8.90;1.00
1461;DHT22;724;49.910;12.530;2022-09-13T00:30:17;8.90;14.40
1461;DHT22;724;49.910;12.530;2022-09-13T00:32:44;8.90;45.60
1461;DHT22;724;49.910;12.530;2022-09-13T00:35:11;8.80;94.80
1461;DHT22;724;49.910;12.530;2022-09-13T00:37:38;8.80;94.20
1461;DHT22;724;49.910;12.530;2022-09-13T00:40:06;8.80;44.90
1461;DHT22;724;49.910;12.530;2022-09-13T00:42:34;8.80;42.20
1461;DHT22;724;49.910;12.530;2022-09-13T00:45:15;8.80;34.90
1461;DHT22;724;49.910;12.530;2022-09-13T00:47:44;8.70;8.80
1461;DHT22;724;49.910;12.530;2022-09-13T00:50:17;8.70;1.00
1461;DHT22;724;49.910;12.530;2022-09-13T00:52:47;8.80;42.00
1461;DHT22;724;49.910;12.530;2022-09-13T00:55:19;8.70;1.00
1461;DHT22;724;49.910;12.530;2022-09-13T00:57:48;8.60;1.00
1461;DHT22;724;49.910;12.530;2022-09-13T01:00:17;8.60;25.50
1461;DHT22;724;49.910;12.530;2022-09-13T01:02:49;8.60;80.10
1461;DHT22;724;49.910;12.530;2022-09-13T01:05:20;8.60;94.50
1461;DHT22;724;49.910;12.530;2022-09-13T01:07:47;8.60;99.90
1461;DHT22;724;49.910;12.530;2022-09-13T01:10:14;8.60;99.90
1461;DHT22;724;49.910;12.530;2022-09-13T01:12:46;8.60;99.90
1461;DHT22;724;49.910;12.530;2022-09-13T01:15:15;8.60;99.90
1461;DHT22;724;49.910;12.530;2022-09-13T01:17:42;8.60;99.90
1461;DHT22;724;49.910;12.530;2022-09-13T01:20:10;8.60;99.90
1461;DHT22;724;49.910;12.530;2022-09-13T01:26:28;8.70;1.00
1461;DHT22;724;49.910;12.530;2022-09-13T01:29:24;8.60;99.90
1461;DHT22;724;49.910;12.530;2022-09-13T01:32:02;8.60;99.90
1461;DHT22;724;49.910;12.530;2022-09-13T01:34:38;8.50;99.90
1461;DHT22;724;49.910;12.530;2022-09-13T01:37:32;8.60;99.90
1461;DHT22;724;49.910;12.530;2022-09-13T01:40:08;8.60;1.00
1461;DHT22;724;49.910;12.530;2022-09-13T01:42:47;8.60;1.00
1461;DHT22;724;49.910;12.530;2022-09-13T01:45:27;8.60;1.00
1461;DHT22;724;49.910;12.530;2022-09-13T01:47:59;8.60;1.00
1461;DHT22;724;49.910;12.530;2022-09-13T01:50:35;8.60;1.00
1461;DHT22;724;49.910;12.530;2022-09-13T01:53:06;8.50;1.00
1461;DHT22;724;49.910;12.530;2022-09-13T01:55:39;8.50;1.00
1461;DHT22;724;49.910;12.530;2022-09-13T01:58:14;8.40;1.00
1461;DHT22;724;49.910;12.530;2022-09-13T02:00:46;8.40;1.00
1461;DHT22;724;49.910;12.530;2022-09-13T02:03:17;8.40;1.00
1461;DHT22;724;49.910;12.530;2022-09-13T02:05:50;8.40;99.90
1461;DHT22;724;49.910;12.530;2022-09-13T02:08:23;8.30;99.90
1461;DHT22;724;49.910;12.530;2022-09-13T02:10:54;8.30;1.00
1461;DHT22;724;49.910;12.530;2022-09-13T02:13:25;8.20;91.40
1461;DHT22;724;49.910;12.530;2022-09-13T02:15:57;8.20;99.90
1461;DHT22;724;49.910;12.530;2022-09-13T02:18:30;8.30;99.90
1461;DHT22;724;49.910;12.530;2022-09-13T02:21:00;8.30;99.90
1461;DHT22;724;49.910;12.530;2022-09-13T02:23:34;8.30;99.90
1461;DHT22;724;49.910;12.530;2022-09-13T02:26:04;8.40;1.00
1461;DHT22;724;49.910;12.530;2022-09-13T02:28:35;8.40;1.00
1461;DHT22;724;49.910;12.530;2022-09-13T02:31:03;8.30;1.00
1461;DHT22;724;49.910;12.530;2022-09-13T02:33:36;8.30;1.00
1461;DHT22;724;49.910;12.530;2022-09-13T02:36:06;8.20;1.00
1461;DHT22;724;49.910;12.530;2022-09-13T02:38:42;8.20;1.00
1461;DHT22;724;49.910;12.530;2022-09-13T02:41:14;8.20;1.00
1461;DHT22;724;49.910;12.530;2022-09-13T02:43:47;8.20;1.00
1461;DHT22;724;49.910;12.530;2022-09-13T02:46:23;8.20;1.00
1461;DHT22;724;49.910;12.530;2022-09-13T02:48:58;8.30;1.00
1461;DHT22;724;49.910;12.530;2022-09-13T02:51:31;8.30;1.00
1461;DHT22;724;49.910;12.530;2022-09-13T02:54:08;8.30;1.00
1461;DHT22;724;49.910;12.530;2022-09-13T02:56:42;8.40;1.00
1461;DHT22;724;49.910;12.530;2022-09-13T02:59:13;8.40;1.00
1461;DHT22;724;49.910;12.530;2022-09-13T03:01:41;8.40;1.00
1461;DHT22;724;49.910;12.530;2022-09-13T03:04:11;8.30;1.00
1461;DHT22;724;49.910;12.530;2022-09-13T03:06:39;8.20;1.00
1461;DHT22;724;49.910;12.530;2022-09-13T03:09:07;8.30;1.00
1461;DHT22;724;49.910;12.530;2022-09-13T03:11:45;8.40;1.00
1461;DHT22;724;49.910;12.530;2022-09-13T03:14:20;8.50;1.00
1461;DHT22;724;49.910;12.530;2022-09-13T03:17:10;8.60;1.00
1461;DHT22;724;49.910;12.530;2022-09-13T03:19:52;8.60;1.00
1461;DHT22;724;49.910;12.530;2022-09-13T03:22:48;8.60;1.00
1461;DHT22;724;49.910;12.530;2022-09-13T03:25:26;8.80;1.00
1461;DHT22;724;49.910;12.530;2022-09-13T03:28:02;8.90;1.00
1461;DHT22;724;49.910;12.530;2022-09-13T03:30:34;8.80;1.00
1461;DHT22;724;49.910;12.530;2022-09-13T03:33:05;8.80;1.00
1461;DHT22;724;49.910;12.530;2022-09-13T03:35:40;8.70;1.00
1461;DHT22;724;49.910;12.530;2022-09-13T03:38:11;8.70;1.00
1461;DHT22;724;49.910;12.530;2022-09-13T03:40:42;8.70;1.00
1461;DHT22;724;49.910;12.530;2022-09-13T03:43:13;8.80;1.00
1461;DHT22;724;49.910;12.530;2022-09-13T03:45:45;8.70;1.00
1461;DHT22;724;49.910;12.530;2022-09-13T03:48:14;8.60;1.00
1461;DHT22;724;49.910;12.530;2022-09-13T03:50:44;8.60;1.00
1461;DHT22;724;49.910;12.530;2022-09-13T03:53:15;8.70;1.00
1461;DHT22;724;49.910;12.530;2022-09-13T03:55:44;8.80;1.00
1461;DHT22;724;49.910;12.530;2022-09-13T03:58:12;8.80;1.00
1461;DHT22;724;49.910;12.530;2022-09-13T04:00:39;8.80;1.00
1461;DHT22;724;49.910;12.530;2022-09-13T04:03:06;8.70;1.00
1461;DHT22;724;49.910;12.530;2022-09-13T04:05:34;8.60;1.00
1461;DHT22;724;49.910;12.530;2022-09-13T04:08:03;8.60;1.00
1461;DHT22;724;49.910;12.530;2022-09-13T04:10:31;8.60;1.00
1461;DHT22;724;49.910;12.530;2022-09-13T04:12:57;8.60;1.00
1461;DHT22;724;49.910;12.530;2022-09-13T04:15:24;8.60;1.00
1461;DHT22;724;49.910;12.530;2022-09-13T04:17:51;8.60;1.00
1461;DHT22;724;49.910;12.530;2022-09-13T04:20:18;8.70;1.00
1461;DHT22;724;49.910;12.530;2022-09-13T04:22:50;8.70;1.00
1461;DHT22;724;49.910;12.530;2022-09-13T04:25:18;8.80;1.00
1461;DHT22;724;49.910;12.530;2022-09-13T04:27:46;8.80;1.00
1461;DHT22;724;49.910;12.530;2022-09-13T04:30:14;8.90;1.00
1461;DHT22;724;49.910;12.530;2022-09-13T04:32:41;9.00;1.00
1461;DHT22;724;49.910;12.530;2022-09-13T04:35:09;9.00;1.00
1461;DHT22;724;49.910;12.530;2022-09-13T04:37:37;9.00;1.00
1461;DHT22;724;49.910;12.530;2022-09-13T04:40:05;9.00;1.00
1461;DHT22;724;49.910;12.530;2022-09-13T04:42:34;9.10;1.00
1461;DHT22;724;49.910;12.530;2022-09-13T04:45:01;9.20;1.00
1461;DHT22;724;49.910;12.530;2022-09-13T04:47:28;9.20;1.00
1461;DHT22;724;49.910;12.530;2022-09-13T04:49:55;9.30;1.00
1461;DHT22;724;49.910;12.530;2022-09-13T04:52:22;9.30;1.00
1461;DHT22;724;49.910;12.530;2022-09-13T04:54:48;9.20;1.00
1461;DHT22;724;49.910;12.530;2022-09-13T04:57:16;9.30;1.00
1461;DHT22;724;49.910;12.530;2022-09-13T04:59:44;9.40;1.00
1461;DHT22;724;49.910;12.530;2022-09-13T05:02:11;9.40;1.00
1461;DHT22;724;49.910;12.530;2022-09-13T05:04:37;9.50;1.00
1461;DHT22;724;49.910;12.530;2022-09-13T05:07:04;9.60;1.00
1461;DHT22;724;49.910;12.530;2022-09-13T05:09:31;9.60;1.00
1461;DHT22;724;49.910;12.530;2022-09-13T05:11:58;9.60;1.00
1461;DHT22;724;49.910;12.530;2022-09-13T05:14:25;9.80;99.90
1461;DHT22;724;49.910;12.530;2022-09-13T05:16:53;9.80;99.90
1461;DHT22;724;49.910;12.530;2022-09-13T05:19:20;9.90;99.90
1461;DHT22;724;49.910;12.530;2022-09-13T05:21:46;10.00;99.90
1461;DHT22;724;49.910;12.530;2022-09-13T05:24:13;10.00;30.00
1461;DHT22;724;49.910;12.530;2022-09-13T05:26:40;10.20;1.00
1461;DHT22;724;49.910;12.530;2022-09-13T05:29:07;10.30;1.00
1461;DHT22;724;49.910;12.530;2022-09-13T05:31:35;10.50;99.90
1461;DHT22;724;49.910;12.530;2022-09-13T05:34:05;10.60;99.90
1461;DHT22;724;49.910;12.530;2022-09-13T05:36:32;10.80;99.90
1461;DHT22;724;49.910;12.530;2022-09-13T05:38:59;11.20;1.00
1461;DHT22;724;49.910;12.530;2022-09-13T05:41:26;11.50;1.00
1461;DHT22;724;49.910;12.530;2022-09-13T05:43:52;11.70;99.90
1461;DHT22;724;49.910;12.530;2022-09-13T05:46:20;12.00;1.00
1461;DHT22;724;49.910;12.530;2022-09-13T05:48:47;12.70;1.00
1461;DHT22;724;49.910;12.530;2022-09-13T05:51:17;13.30;1.00
1461;DHT22;724;49.910;12.530;2022-09-13T05:53:45;13.80;1.00
1461;DHT22;724;49.910;12.530;2022-09-13T05:56:14;13.60;99.90
1461;DHT22;724;49.910;12.530;2022-09-13T05:58:43;13.50;99.90
1461;DHT22;724;49.910;12.530;2022-09-13T06:01:11;13.20;99.90
1461;DHT22;724;49.910;12.530;2022-09-13T06:03:38;13.30;99.90
1461;DHT22;724;49.910;12.530;2022-09-13T06:06:05;14.40;99.90
1461;DHT22;724;49.910;12.530;2022-09-13T06:08:34;15.30;1.00
1461;DHT22;724;49.910;12.530;2022-09-13T06:11:02;16.10;1.00
1461;DHT22;724;49.910;12.530;2022-09-13T06:13:30;16.60;1.00
1461;DHT22;724;49.910;12.530;2022-09-13T06:15:58;16.70;1.00
1461;DHT22;724;49.910;12.530;2022-09-13T06:18:26;16.60;1.00
1461;DHT22;724;49.910;12.530;2022-09-13T06:20:57;16.80;1.00
1461;DHT22;724;49.910;12.530;2022-09-13T06:23:24;17.00;1.00
1461;DHT22;724;49.910;12.530;2022-09-13T06:26:00;17.00;1.00
1461;DHT22;724;49.910;12.530;2022-09-13T06:28:26;16.90;1.00
1461;DHT22;724;49.910;12.530;2022-09-13T06:30:59;16.90;1.00
1461;DHT22;724;49.910;12.530;2022-09-13T06:33:26;17.00;1.00
1461;DHT22;724;49.910;12.530;2022-09-13T06:35:52;16.90;1.00
1461;DHT22;724;49.910;12.530;2022-09-13T06:38:19;17.20;1.00
1461;DHT22;724;49.910;12.530;2022-09-13T06:40:46;17.10;1.00
1461;DHT22;724;49.910;12.530;2022-09-13T06:43:14;17.50;1.00
1461;DHT22;724;49.910;12.530;2022-09-13T06:45:41;17.50;1.00
1461;DHT22;724;49.910;12.530;2022-09-13T06:48:08;17.70;1.00
1461;DHT22;724;49.910;12.530;2022-09-13T06:50:34;17.80;1.00
1461;DHT22;724;49.910;12.530;2022-09-13T06:53:01;17.90;1.00
1461;DHT22;724;49.910;12.530;2022-09-13T06:55:28;18.40;1.00
1461;DHT22;724;49.910;12.530;2022-09-13T06:57:55;18.80;1.00
1461;DHT22;724;49.910;12.530;2022-09-13T07:00:23;18.90;99.90
1461;DHT22;724;49.910;12.530;2022-09-13T07:02:50;18.70;99.90
1461;DHT22;724;49.910;12.530;2022-09-13T07:05:17;18.60;99.90
1461;DHT22;724;49.910;12.530;2022-09-13T07:07:45;18.60;99.90
1461;DHT22;724;49.910;12.530;2022-09-13T07:10:12;18.10;99.90
1461;DHT22;724;49.910;12.530;2022-09-13T07:12:39;17.90;99.90
1461;DHT22;724;49.910;12.530;2022-09-13T07:15:07;17.50;99.90
1461;DHT22;724;49.910;12.530;2022-09-13T07:17:35;17.30;99.90
1461;DHT22;724;49.910;12.530;2022-09-13T07:20:02;16.60;1.00
1461;DHT22;724;49.910;12.530;2022-09-13T07:22:31;16.80;1.00
1461;DHT22;724;49.910;12.530;2022-09-13T07:24:58;16.90;1.00
1461;DHT22;724;49.910;12.530;2022-09-13T07:27:26;17.00;99.90
1461;DHT22;724;49.910;12.530;2022-09-13T07:29:52;17.80;1.00
1461;DHT22;724;49.910;12.530;2022-09-13T07:32:19;17.70;99.90
1461;DHT22;724;49.910;12.530;2022-09-13T07:34:49;18.20;99.90
1461;DHT22;724;49.910;12.530;2022-09-13T07:37:16;19.00;99.90
1461;DHT22;724;49.910;12.530;2022-09-13T07:39:42;18.40;99.90
1461;DHT22;724;49.910;12.530;2022-09-13T07:42:09;18.20;99.90
1461;DHT22;724;49.910;12.530;2022-09-13T07:44:36;18.60;99.90
1461;DHT22;724;49.910;12.530;2022-09-13T07:47:03;18.70;99.90
1461;DHT22;724;49.910;12.530;2022-09-13T07:49:29;18.60;99.90
1461;DHT22;724;49.910;12.530;2022-09-13T07:51:57;18.40;99.90
1461;DHT22;724;49.910;12.530;2022-09-13T07:54:24;19.10;99.90
1461;DHT22;724;49.910;12.530;2022-09-13T07:56:51;19.30;99.90
1461;DHT22;724;49.910;12.530;2022-09-13T07:59:18;18.60;99.90
1461;DHT22;724;49.910;12.530;2022-09-13T08:01:46;18.60;99.90
1461;DHT22;724;49.910;12.530;2022-09-13T08:04:15;19.40;99.90
1461;DHT22;724;49.910;12.530;2022-09-13T08:06:43;20.60;99.90
1461;DHT22;724;49.910;12.530;2022-09-13T08:09:12;21.90;99.90
1461;DHT22;724;49.910;12.530;2022-09-13T08:11:41;21.60;99.90
1461;DHT22;724;49.910;12.530;2022-09-13T08:14:10;22.50;99.90
1461;DHT22;724;49.910;12.530;2022-09-13T08:16:38;22.40;99.90
1461;DHT22;724;49.910;12.530;2022-09-13T08:19:05;22.60;99.90
1461;DHT22;724;49.910;12.530;2022-09-13T08:21:35;22.50;82.40
1461;DHT22;724;49.910;12.530;2022-09-13T08:24:02;22.50;79.10
1461;DHT22;724;49.910;12.530;2022-09-13T08:26:32;20.90;73.10
1461;DHT22;724;49.910;12.530;2022-09-13T08:29:02;20.50;65.70
1461;DHT22;724;49.910;12.530;2022-09-13T08:31:30;20.00;90.40
1461;DHT22;724;49.910;12.530;2022-09-13T08:33:57;20.00;92.50
1461;DHT22;724;49.910;12.530;2022-09-13T08:36:24;19.60;99.90
1461;DHT22;724;49.910;12.530;2022-09-13T08:38:53;19.40;99.90
1461;DHT22;724;49.910;12.530;2022-09-13T08:41:48;19.20;99.90
1461;DHT22;724;49.910;12.530;2022-09-13T08:44:25;19.80;99.90
1461;DHT22;724;49.910;12.530;2022-09-13T08:46:56;21.10;99.90
1461;DHT22;724;49.910;12.530;2022-09-13T08:49:28;20.80;99.90
1461;DHT22;724;49.910;12.530;2022-09-13T08:51:59;20.20;99.00
1461;DHT22;724;49.910;12.530;2022-09-13T08:54:28;19.80;99.90
1461;DHT22;724;49.910;12.530;2022-09-13T08:57:00;19.80;99.90
1461;DHT22;724;49.910;12.530;2022-09-13T08:59:39;19.20;99.90
1461;DHT22;724;49.910;12.530;2022-09-13T09:02:32;18.90;99.90
1461;DHT22;724;49.910;12.530;2022-09-13T09:05:05;18.50;99.90
1461;DHT22;724;49.910;12.530;2022-09-13T09:07:41;18.40;99.90
1461;DHT22;724;49.910;12.530;2022-09-13T09:10:14;18.20;99.90
1461;DHT22;724;49.910;12.530;2022-09-13T09:12:45;18.90;99.90
1461;DHT22;724;49.910;12.530;2022-09-13T09:15:16;19.60;99.90
1461;DHT22;724;49.910;12.530;2022-09-13T09:17:50;19.80;99.90
1461;DHT22;724;49.910;12.530;2022-09-13T09:20:25;20.10;99.90
1461;DHT22;724;49.910;12.530;2022-09-13T09:22:54;20.40;99.90
1461;DHT22;724;49.910;12.530;2022-09-13T09:25:23;20.60;99.90
1461;DHT22;724;49.910;12.530;2022-09-13T09:27:52;20.40;99.90
1461;DHT22;724;49.910;12.530;2022-09-13T09:30:19;20.30;99.90
1461;DHT22;724;49.910;12.530;2022-09-13T09:33:02;21.10;99.90
1461;DHT22;724;49.910;12.530;2022-09-13T09:35:44;20.60;99.90
1461;DHT22;724;49.910;12.530;2022-09-13T09:38:30;19.90;99.90
1461;DHT22;724;49.910;12.530;2022-09-13T09:41:00;20.50;99.90
1461;DHT22;724;49.910;12.530;2022-09-13T09:43:38;20.90;99.90
1461;DHT22;724;49.910;12.530;2022-09-13T09:46:08;20.60;99.90
1461;DHT22;724;49.910;12.530;2022-09-13T09:48:40;20.40;99.90
1461;DHT22;724;49.910;12.530;2022-09-13T09:51:08;21.50;99.90
1461;DHT22;724;49.910;12.530;2022-09-13T09:53:40;21.70;99.90
1461;DHT22;724;49.910;12.530;2022-09-13T09:56:19;22.40;67.20
1461;DHT22;724;49.910;12.530;2022-09-13T09:58:48;22.80;70.90
1461;DHT22;724;49.910;12.530;2022-09-13T10:01:20;22.20;35.60
1461;DHT22;724;49.910;12.530;2022-09-13T10:03:51;21.60;52.10
1461;DHT22;724;49.910;12.530;2022-09-13T10:06:20;21.80;48.10
1461;DHT22;724;49.910;12.530;2022-09-13T10:08:54;21.60;58.10
1461;DHT22;724;49.910;12.530;2022-09-13T10:11:23;21.60;56.80
1461;DHT22;724;49.910;12.530;2022-09-13T10:14:00;21.30;49.70
1461;DHT22;724;49.910;12.530;2022-09-13T10:16:29;20.80;56.10
1461;DHT22;724;49.910;12.530;2022-09-13T10:19:16;20.80;51.80
1461;DHT22;724;49.910;12.530;2022-09-13T10:21:59;20.10;71.30
1461;DHT22;724;49.910;12.530;2022-09-13T10:24:26;19.50;90.30
1461;DHT22;724;49.910;12.530;2022-09-13T10:26:54;19.80;56.50
1461;DHT22;724;49.910;12.530;2022-09-13T10:29:23;19.80;91.80
1461;DHT22;724;49.910;12.530;2022-09-13T10:31:52;19.70;98.40
1461;DHT22;724;49.910;12.530;2022-09-13T10:34:25;19.90;99.90
1461;DHT22;724;49.910;12.530;2022-09-13T10:36:55;20.00;97.30
1461;DHT22;724;49.910;12.530;2022-09-13T10:39:25;19.50;87.20
1461;DHT22;724;49.910;12.530;2022-09-13T10:41:56;19.30;99.90
1461;DHT22;724;49.910;12.530;2022-09-13T10:44:31;19.10;99.90
1461;DHT22;724;49.910;12.530;2022-09-13T10:47:02;18.70;99.90
1461;DHT22;724;49.910;12.530;2022-09-13T10:49:52;18.90;99.90
1461;DHT22;724;49.910;12.530;2022-09-13T10:52:31;18.70;99.90
1461;DHT22;724;49.910;12.530;2022-09-13T10:55:30;18.90;99.90
1461;DHT22;724;49.910;12.530;2022-09-13T10:58:18;18.60;99.90
1461;DHT22;724;49.910;12.530;2022-09-13T11:04:18;18.90;99.90
1461;DHT22;724;49.910;12.530;2022-09-13T11:06:54;19.20;99.90
1461;DHT22;724;49.910;12.530;2022-09-13T11:09:30;19.00;99.90
1461;DHT22;724;49.910;12.530;2022-09-13T11:12:05;19.00;99.90
1461;DHT22;724;49.910;12.530;2022-09-13T11:14:44;19.30;99.90
1461;DHT22;724;49.910;12.530;2022-09-13T11:17:19;19.40;99.90
1461;DHT22;724;49.910;12.530;2022-09-13T11:20:00;19.30;99.90
1461;DHT22;724;49.910;12.530;2022-09-13T11:23:00;19.70;99.90
1461;DHT22;724;49.910;12.530;2022-09-13T11:25:47;20.00;99.90
1461;DHT22;724;49.910;12.530;2022-09-13T11:28:24;19.70;99.90
1461;DHT22;724;49.910;12.530;2022-09-13T11:31:12;19.90;99.90
1461;DHT22;724;49.910;12.530;2022-09-13T11:33:53;19.80;99.90
1461;DHT22;724;49.910;12.530;2022-09-13T11:36:55;19.40;99.90
1461;DHT22;724;49.910;12.530;2022-09-13T11:39:30;19.10;99.90
1461;DHT22;724;49.910;12.530;2022-09-13T11:42:08;19.00;99.90
1461;DHT22;724;49.910;12.530;2022-09-13T11:45:05;19.00;99.90
1461;DHT22;724;49.910;12.530;2022-09-13T11:47:42;19.30;99.90
1461;DHT22;724;49.910;12.530;2022-09-13T11:50:28;19.30;99.90
1461;DHT22;724;49.910;12.530;2022-09-13T11:53:10;20.00;99.90
1461;DHT22;724;49.910;12.530;2022-09-13T11:55:42;20.30;99.90
1461;DHT22;724;49.910;12.530;2022-09-13T11:58:13;20.50;99.90
1461;DHT22;724;49.910;12.530;2022-09-13T12:00:44;20.30;99.90
1461;DHT22;724;49.910;12.530;2022-09-13T12:03:16;20.00;99.90
1461;DHT22;724;49.910;12.530;2022-09-13T12:05:50;20.10;99.90
1461;DHT22;724;49.910;12.530;2022-09-13T12:08:20;20.20;99.90
1461;DHT22;724;49.910;12.530;2022-09-13T12:10:50;20.30;99.90
1461;DHT22;724;49.910;12.530;2022-09-13T12:13:21;20.50;99.90
1461;DHT22;724;49.910;12.530;2022-09-13T12:15:51;20.30;99.90
1461;DHT22;724;49.910;12.530;2022-09-13T12:18:22;20.40;99.90
1461;DHT22;724;49.910;12.530;2022-09-13T12:20:54;20.00;99.90
1461;DHT22;724;49.910;12.530;2022-09-13T12:23:26;20.00;99.90
1461;DHT22;724;49.910;12.530;2022-09-13T12:25:57;20.00;99.90
1461;DHT22;724;49.910;12.530;2022-09-13T12:28:28;20.20;99.90
1461;DHT22;724;49.910;12.530;2022-09-13T12:31:03;19.90;99.90
1461;DHT22;724;49.910;12.530;2022-09-13T12:33:30;20.10;99.90
1461;DHT22;724;49.910;12.530;2022-09-13T12:36:14;20.30;99.90
1461;DHT22;724;49.910;12.530;2022-09-13T12:39:05;20.50;99.90
1461;DHT22;724;49.910;12.530;2022-09-13T12:41:49;20.50;99.90
1461;DHT22;724;49.910;12.530;2022-09-13T12:44:46;20.30;99.90
1461;DHT22;724;49.910;12.530;2022-09-13T12:47:58;20.40;99.90
1461;DHT22;724;49.910;12.530;2022-09-13T12:50:41;20.80;99.90
1461;DHT22;724;49.910;12.530;2022-09-13T12:53:23;20.60;99.90
1461;DHT22;724;49.910;12.530;2022-09-13T12:56:00;20.60;99.90
1461;DHT22;724;49.910;12.530;2022-09-13T12:58:44;20.40;99.90
1461;DHT22;724;49.910;12.530;2022-09-13T13:01:16;20.30;99.90
1461;DHT22;724;49.910;12.530;2022-09-13T13:03:50;20.20;99.90
1461;DHT22;724;49.910;12.530;2022-09-13T13:06:31;20.30;99.90
1461;DHT22;724;49.910;12.530;2022-09-13T13:09:03;20.70;99.90
1461;DHT22;724;49.910;12.530;2022-09-13T13:11:42;20.50;99.90
1461;DHT22;724;49.910;12.530;2022-09-13T13:14:27;20.40;99.90
1461;DHT22;724;49.910;12.530;2022-09-13T13:20:01;20.00;99.90
1461;DHT22;724;49.910;12.530;2022-09-13T13:22:49;20.10;99.90
1461;DHT22;724;49.910;12.530;2022-09-13T13:25:31;20.10;99.90
1461;DHT22;724;49.910;12.530;2022-09-13T13:27:58;20.00;99.90
1461;DHT22;724;49.910;12.530;2022-09-13T13:30:49;20.00;99.90
1461;DHT22;724;49.910;12.530;2022-09-13T13:33:20;20.10;99.90
1461;DHT22;724;49.910;12.530;2022-09-13T13:35:47;20.10;99.90
1461;DHT22;724;49.910;12.530;2022-09-13T13:38:16;20.20;99.90
1461;DHT22;724;49.910;12.530;2022-09-13T13:41:17;20.00;99.90
1461;DHT22;724;49.910;12.530;2022-09-13T13:43:55;20.00;99.90
1461;DHT22;724;49.910;12.530;2022-09-13T13:46:29;19.70;99.90
1461;DHT22;724;49.910;12.530;2022-09-13T13:49:40;19.60;99.90
1461;DHT22;724;49.910;12.530;2022-09-13T13:52:33;19.80;99.90
1461;DHT22;724;49.910;12.530;2022-09-13T13:55:20;19.70;99.90
1461;DHT22;724;49.910;12.530;2022-09-13T13:57:56;19.70;99.90
1461;DHT22;724;49.910;12.530;2022-09-13T14:00:28;19.60;99.90
1461;DHT22;724;49.910;12.530;2022-09-13T14:03:08;19.70;99.90
1461;DHT22;724;49.910;12.530;2022-09-13T14:05:42;19.80;99.90
1461;DHT22;724;49.910;12.530;2022-09-13T14:08:37;19.80;99.90
1461;DHT22;724;49.910;12.530;2022-09-13T14:11:15;19.80;99.90
1461;DHT22;724;49.910;12.530;2022-09-13T14:13:56;19.80;99.90
1461;DHT22;724;49.910;12.530;2022-09-13T14:16:34;19.90;99.90
1461;DHT22;724;49.910;12.530;2022-09-13T14:19:16;20.10;99.90
1461;DHT22;724;49.910;12.530;2022-09-13T14:21:44;20.10;99.90
1461;DHT22;724;49.910;12.530;2022-09-13T14:24:18;20.10;99.90
1461;DHT22;724;49.910;12.530;2022-09-13T14:26:48;19.90;99.90
1461;DHT22;724;49.910;12.530;2022-09-13T14:29:21;19.80;99.90
1461;DHT22;724;49.910;12.530;2022-09-13T14:32:04;19.80;99.90
1461;DHT22;724;49.910;12.530;2022-09-13T14:34:36;20.00;99.90
1461;DHT22;724;49.910;12.530;2022-09-13T14:37:18;20.30;99.90
1461;DHT22;724;49.910;12.530;2022-09-13T14:39:56;20.50;99.90
1461;DHT22;724;49.910;12.530;2022-09-13T14:42:23;20.70;99.90
1461;DHT22;724;49.910;12.530;2022-09-13T14:44:53;20.90;99.90
1461;DHT22;724;49.910;12.530;2022-09-13T14:47:26;20.80;99.90
1461;DHT22;724;49.910;12.530;2022-09-13T14:49:59;20.80;99.90
1461;DHT22;724;49.910;12.530;2022-09-13T14:52:30;20.60;99.90
1461;DHT22;724;49.910;12.530;2022-09-13T14:55:00;20.90;99.90
1461;DHT22;724;49.910;12.530;2022-09-13T14:57:31;20.90;99.90
1461;DHT22;724;49.910;12.530;2022-09-13T15:00:02;21.00;99.90
1461;DHT22;724;49.910;12.530;2022-09-13T15:02:35;20.90;99.90
1461;DHT22;724;49.910;12.530;2022-09-13T15:05:05;21.10;99.90
1461;DHT22;724;49.910;12.530;2022-09-13T15:07:35;21.10;99.90
1461;DHT22;724;49.910;12.530;2022-09-13T15:10:08;21.10;99.90
1461;DHT22;724;49.910;12.530;2022-09-13T15:12:50;21.00;99.90
1461;DHT22;724;49.910;12.530;2022-09-13T15:15:36;20.90;97.40
1461;DHT22;724;49.910;12.530;2022-09-13T15:18:22;20.40;93.30
1461;DHT22;724;49.910;12.530;2022-09-13T15:20:51;20.50;99.90
1461;DHT22;724;49.910;12.530;2022-09-13T15:23:22;20.10;99.90
1461;DHT22;724;49.910;12.530;2022-09-13T15:25:52;20.10;99.90
1461;DHT22;724;49.910;12.530;2022-09-13T15:28:23;20.50;99.90
1461;DHT22;724;49.910;12.530;2022-09-13T15:30:50;20.40;99.90
1461;DHT22;724;49.910;12.530;2022-09-13T15:33:27;20.50;99.90
1461;DHT22;724;49.910;12.530;2022-09-13T15:36:14;20.30;99.90
1461;DHT22;724;49.910;12.530;2022-09-13T15:38:59;20.30;99.90
1461;DHT22;724;49.910;12.530;2022-09-13T15:41:29;20.40;99.90
1461;DHT22;724;49.910;12.530;2022-09-13T15:43:57;20.20;99.90
1461;DHT22;724;49.910;12.530;2022-09-13T15:46:24;20.50;99.90
1461;DHT22;724;49.910;12.530;2022-09-13T15:48:54;20.30;99.90
1461;DHT22;724;49.910;12.530;2022-09-13T15:51:21;20.40;99.90
1461;DHT22;724;49.910;12.530;2022-09-13T15:53:48;20.30;99.90
1461;DHT22;724;49.910;12.530;2022-09-13T15:56:18;20.30;99.90
1461;DHT22;724;49.910;12.530;2022-09-13T15:58:45;20.10;99.90
1461;DHT22;724;49.910;12.530;2022-09-13T16:01:16;20.00;99.90
1461;DHT22;724;49.910;12.530;2022-09-13T16:03:43;19.90;99.90
1461;DHT22;724;49.910;12.530;2022-09-13T16:06:11;20.00;99.90
1461;DHT22;724;49.910;12.530;2022-09-13T16:08:39;19.90;99.90
1461;DHT22;724;49.910;12.530;2022-09-13T16:11:06;20.10;99.90
1461;DHT22;724;49.910;12.530;2022-09-13T16:13:33;19.80;99.90
1461;DHT22;724;49.910;12.530;2022-09-13T16:16:01;19.60;99.90
1461;DHT22;724;49.910;12.530;2022-09-13T16:18:29;19.70;99.90
1461;DHT22;724;49.910;12.530;2022-09-13T16:20:56;19.70;99.90
1461;DHT22;724;49.910;12.530;2022-09-13T16:23:24;19.60;99.90
1461;DHT22;724;49.910;12.530;2022-09-13T16:25:54;19.60;99.90
1461;DHT22;724;49.910;12.530;2022-09-13T16:28:22;19.30;99.90
1461;DHT22;724;49.910;12.530;2022-09-13T16:30:49;19.30;99.90
1461;DHT22;724;49.910;12.530;2022-09-13T16:33:16;19.50;99.90
1461;DHT22;724;49.910;12.530;2022-09-13T16:35:45;19.40;99.90
1461;DHT22;724;49.910;12.530;2022-09-13T16:38:12;19.30;99.90
1461;DHT22;724;49.910;12.530;2022-09-13T16:40:41;19.10;99.90
1461;DHT22;724;49.910;12.530;2022-09-13T16:43:08;18.90;99.90
1461;DHT22;724;49.910;12.530;2022-09-13T16:45:37;18.80;99.90
1461;DHT22;724;49.910;12.530;2022-09-13T16:48:05;18.80;99.90
1461;DHT22;724;49.910;12.530;2022-09-13T16:50:32;18.60;99.90
1461;DHT22;724;49.910;12.530;2022-09-13T16:52:59;18.50;99.90
1461;DHT22;724;49.910;12.530;2022-09-13T16:55:25;18.50;99.90